Alexander Maersk — OZRC2 — position and weather

sailwx.info

Track history (hours):
 
Tides and Currents Weather Stations Pressure Air Temp Water Temp Dewpoint Dewpoint Depression Visibility Wind Speed Wind Dir Waves Ship Positions

Alexander Maersk

Last reported at 2015-Aug-30 14:32 UTC. Time now 2015-Sep-04 03:54 UTC.
Position N 32°22' E 015°13'.

Length 155 m; draft 9.4 m.

Type: Ship. MMSI: 219470000.

Date/timePositionNaut miles runAvg speedWind from/ knotsBaromVisibWave heightAir tempDewpointWater temp
2015-Aug-30 14:32N 32°22' E 015°13'119 2.5
2015-Aug-28 14:33N 34°20' E 014°54'81 9.7
2015-Aug-28 06:11N 35°39' E 014°36'913.6
2015-Aug-28 05:32N 35°48' E 014°34'2 0.3
2015-Aug-27 22:32N 35°49' E 014°32'0 0.0
2015-Aug-27 16:32N 35°49' E 014°32'0 0.0
2015-Aug-27 15:32N 35°49' E 014°32'0 0.0
2015-Aug-27 14:14N 35°49' E 014°32'0 0.0
2015-Aug-27 10:32N 35°49' E 014°32'0 0.0
2015-Aug-27 08:29N 35°49' E 014°32'0 0.0
2015-Aug-27 07:29N 35°49' E 014°32'0 0.0
2015-Aug-27 05:26N 35°49' E 014°32'0 0.0
2015-Aug-27 01:29N 35°49' E 014°32'2 2.3
2015-Aug-27 00:34N 35°49' E 014°35'6 6.0
2015-Aug-26 23:33N 35°51' E 014°42'0 0.0
2015-Aug-26 22:33N 35°51' E 014°42'0 0.0
2015-Aug-26 21:06N 35°51' E 014°42'0 0.2
2015-Aug-26 20:33N 35°51' E 014°42'0 0.1
2015-Aug-26 19:33N 35°51' E 014°42'0 0.0
2015-Aug-26 18:33N 35°51' E 014°42'0 0.0
2015-Aug-26 17:33N 35°51' E 014°42'0 0.0
2015-Aug-26 16:24N 35°51' E 014°42'0 0.0
2015-Aug-26 15:33N 35°51' E 014°42'0 0.0
2015-Aug-26 14:33N 35°51' E 014°42'0 0.0
2015-Aug-26 13:33N 35°51' E 014°42'0 0.0
2015-Aug-26 12:24N 35°51' E 014°42'0 0.0
2015-Aug-26 11:33N 35°51' E 014°42'0 0.0
2015-Aug-26 10:33N 35°51' E 014°42'0 0.0
2015-Aug-26 07:33N 35°51' E 014°42'0 0.0
2015-Aug-26 06:33N 35°51' E 014°42'0 0.0
2015-Aug-26 05:30N 35°51' E 014°42'0 0.0
2015-Aug-26 04:33N 35°51' E 014°42'0 0.0
2015-Aug-26 03:33N 35°51' E 014°42'0 0.0
2015-Aug-26 02:33N 35°51' E 014°42'0 0.0
2015-Aug-26 01:33N 35°51' E 014°42'0 0.0
2015-Aug-26 00:33N 35°51' E 014°42'0 0.0
2015-Aug-25 23:33N 35°51' E 014°42'0 0.0
2015-Aug-25 22:33N 35°51' E 014°42'0 0.0
2015-Aug-25 21:33N 35°51' E 014°42'0 0.0
2015-Aug-25 20:33N 35°51' E 014°42'0 0.0
2015-Aug-25 19:33N 35°51' E 014°42'0 0.0
2015-Aug-25 18:33N 35°51' E 014°42'0 0.1
2015-Aug-25 17:33N 35°51' E 014°42'0 0.1
2015-Aug-25 16:30N 35°51' E 014°42'0 0.1
2015-Aug-25 15:33N 35°51' E 014°42'0 0.1
2015-Aug-25 14:33N 35°51' E 014°42'0 0.0
2015-Aug-25 13:33N 35°51' E 014°42'0 0.0
2015-Aug-25 12:33N 35°51' E 014°42'0 0.0
2015-Aug-25 11:33N 35°51' E 014°42'0 0.0
2015-Aug-25 10:33N 35°51' E 014°42'0 0.0
2015-Aug-25 09:30N 35°51' E 014°42'0 0.0
2015-Aug-25 08:33N 35°51' E 014°42'0 0.0
2015-Aug-25 07:33N 35°51' E 014°42'0 0.0
2015-Aug-25 06:33N 35°51' E 014°42'0 0.0
2015-Aug-25 05:33N 35°51' E 014°42'0 0.0
2015-Aug-25 04:30N 35°51' E 014°42'0 0.0
2015-Aug-25 03:33N 35°51' E 014°42'0 0.1
2015-Aug-25 02:33N 35°51' E 014°42'0 0.2
2015-Aug-25 01:33N 35°51' E 014°42'0 0.0
2015-Aug-25 00:33N 35°51' E 014°42'0 0.0
2015-Aug-24 23:33N 35°51' E 014°42'0 0.0
2015-Aug-24 22:33N 35°51' E 014°42'0 0.0
2015-Aug-24 21:33N 35°51' E 014°42'0 0.0
2015-Aug-24 20:33N 35°51' E 014°42'0 0.0
2015-Aug-24 19:33N 35°51' E 014°42'0 0.0
2015-Aug-24 18:33N 35°51' E 014°42'0 0.0
2015-Aug-24 17:33N 35°51' E 014°42'0 0.0
2015-Aug-24 16:33N 35°51' E 014°42'0 0.0
2015-Aug-24 15:30N 35°51' E 014°42'0 0.0
2015-Aug-24 14:33N 35°51' E 014°42'0 0.0
2015-Aug-24 13:33N 35°51' E 014°42'0 0.0
2015-Aug-24 12:33N 35°51' E 014°42'0 0.0
2015-Aug-24 11:33N 35°51' E 014°42'0 0.0
2015-Aug-24 10:30N 35°51' E 014°42'0 0.0
2015-Aug-24 09:33N 35°51' E 014°42'0 0.0
2015-Aug-24 08:33N 35°51' E 014°42'0 0.0
2015-Aug-24 07:33N 35°51' E 014°42'0 0.0
2015-Aug-24 06:33N 35°51' E 014°42'0 0.0
2015-Aug-24 05:33N 35°51' E 014°42'0 0.0
2015-Aug-24 04:30N 35°51' E 014°42'0 0.0
2015-Aug-24 03:33N 35°51' E 014°42'0 0.0
2015-Aug-24 02:33N 35°51' E 014°42'0 0.0
2015-Aug-24 01:33N 35°51' E 014°42'0 0.0
2015-Aug-24 00:33N 35°51' E 014°42'0 0.0
2015-Aug-23 23:33N 35°51' E 014°42'0 0.0
2015-Aug-23 22:33N 35°51' E 014°42'0 0.1
2015-Aug-23 21:33N 35°51' E 014°42'0 0.1
2015-Aug-23 20:33N 35°51' E 014°42'0 0.0
2015-Aug-23 19:33N 35°51' E 014°42'0 0.0
2015-Aug-23 18:30N 35°51' E 014°42'0 0.0
2015-Aug-23 17:33N 35°51' E 014°42'0 0.0
2015-Aug-23 16:30N 35°51' E 014°42'0 0.0
2015-Aug-23 15:33N 35°51' E 014°42'0 0.0
2015-Aug-23 14:33N 35°51' E 014°42'0 0.0
2015-Aug-23 13:33N 35°51' E 014°42'0 0.0
2015-Aug-23 12:30N 35°51' E 014°42'0 0.0
2015-Aug-23 11:33N 35°51' E 014°42'0 0.0
2015-Aug-23 10:33N 35°51' E 014°42'0 0.0
2015-Aug-23 09:27N 35°51' E 014°42'0 0.0
2015-Aug-23 08:33N 35°51' E 014°42'0 0.0
2015-Aug-23 07:33N 35°51' E 014°42'0 0.0
2015-Aug-23 06:27N 35°51' E 014°42'0 0.0
2015-Aug-23 01:27N 35°51' E 014°42'0 0.0
2015-Aug-23 00:30N 35°51' E 014°42'0 0.1
2015-Aug-22 23:30N 35°51' E 014°42'0 0.0
2015-Aug-22 22:21N 35°51' E 014°42'0 0.0
2015-Aug-22 21:33N 35°51' E 014°42'0 0.1
2015-Aug-22 20:18N 35°51' E 014°42'0 0.0
2015-Aug-22 19:33N 35°51' E 014°42'0 0.0
2015-Aug-22 18:33N 35°51' E 014°42'0 0.0
2015-Aug-22 17:33N 35°51' E 014°42'0 0.0
2015-Aug-22 16:30N 35°51' E 014°42'0 0.0
2015-Aug-22 15:33N 35°51' E 014°42'0 0.0
2015-Aug-22 14:33N 35°51' E 014°42'0 0.0
2015-Aug-22 13:33N 35°51' E 014°42'0 0.0
2015-Aug-22 10:33N 35°51' E 014°42'0 0.0
2015-Aug-22 09:18N 35°51' E 014°42'0 0.0
2015-Aug-22 08:33N 35°51' E 014°42'0 0.1
2015-Aug-22 07:33N 35°51' E 014°42'0 0.0
2015-Aug-22 06:33N 35°51' E 014°42'0 0.0
2015-Aug-22 05:33N 35°51' E 014°42'0 0.0
2015-Aug-22 04:33N 35°51' E 014°42'0 0.0
2015-Aug-22 03:33N 35°51' E 014°42'0 0.0
2015-Aug-22 02:33N 35°51' E 014°42'0 0.1
2015-Aug-22 01:33N 35°51' E 014°42'0 0.0
2015-Aug-22 00:33N 35°51' E 014°42'0 0.0
2015-Aug-21 23:33N 35°51' E 014°42'0 0.0
2015-Aug-21 22:33N 35°51' E 014°42'2 2.4
2015-Aug-21 21:33N 35°49' E 014°42'9 9.1
2015-Aug-21 20:33N 35°40' E 014°43'9 8.8
2015-Aug-21 19:34N 35°31' E 014°44'9 8.8
2015-Aug-21 18:33N 35°22' E 014°45'158 8.3
2015-Aug-20 23:32N 32°46' E 015°13'24 6.0
2015-Aug-20 19:26N 32°22' E 015°13'0 0.0
2015-Aug-20 18:32N 32°22' E 015°13'0 0.0
2015-Aug-20 17:32N 32°22' E 015°13'0 0.0
2015-Aug-20 16:23N 32°22' E 015°13'0 0.0
2015-Aug-20 15:32N 32°22' E 015°13'  
Track history (hours):
 
Tides and Currents Weather Stations Pressure Air Temp Water Temp Dewpoint Dewpoint Depression Visibility Wind Speed Wind Dir Waves Ship Positions

Alexander Maersk

Last reported at 2015-Aug-30 14:32 UTC. Time now 2015-Sep-04 03:54 UTC.
Position N 32°22' E 015°13'.

Length 155 m; draft 9.4 m.

Type: Ship. MMSI: 219470000.

Date/timePositionNaut miles runAvg speedWind from/ knotsBaromVisibWave heightAir tempDewpointWater temp
2015-Aug-30 14:32N 32°22' E 015°13'119 2.5
2015-Aug-28 14:33N 34°20' E 014°54'81 9.7
2015-Aug-28 06:11N 35°39' E 014°36'913.6
2015-Aug-28 05:32N 35°48' E 014°34'2 0.3
2015-Aug-27 22:32N 35°49' E 014°32'0 0.0
2015-Aug-27 16:32N 35°49' E 014°32'0 0.0
2015-Aug-27 15:32N 35°49' E 014°32'0 0.0
2015-Aug-27 14:14N 35°49' E 014°32'0 0.0
2015-Aug-27 10:32N 35°49' E 014°32'0 0.0
2015-Aug-27 08:29N 35°49' E 014°32'0 0.0
2015-Aug-27 07:29N 35°49' E 014°32'0 0.0
2015-Aug-27 05:26N 35°49' E 014°32'0 0.0
2015-Aug-27 01:29N 35°49' E 014°32'2 2.3
2015-Aug-27 00:34N 35°49' E 014°35'6 6.0
2015-Aug-26 23:33N 35°51' E 014°42'0 0.0
2015-Aug-26 22:33N 35°51' E 014°42'0 0.0
2015-Aug-26 21:06N 35°51' E 014°42'0 0.2
2015-Aug-26 20:33N 35°51' E 014°42'0 0.1
2015-Aug-26 19:33N 35°51' E 014°42'0 0.0
2015-Aug-26 18:33N 35°51' E 014°42'0 0.0
2015-Aug-26 17:33N 35°51' E 014°42'0 0.0
2015-Aug-26 16:24N 35°51' E 014°42'0 0.0
2015-Aug-26 15:33N 35°51' E 014°42'0 0.0
2015-Aug-26 14:33N 35°51' E 014°42'0 0.0
2015-Aug-26 13:33N 35°51' E 014°42'0 0.0
2015-Aug-26 12:24N 35°51' E 014°42'0 0.0
2015-Aug-26 11:33N 35°51' E 014°42'0 0.0
2015-Aug-26 10:33N 35°51' E 014°42'0 0.0
2015-Aug-26 07:33N 35°51' E 014°42'0 0.0
2015-Aug-26 06:33N 35°51' E 014°42'0 0.0
2015-Aug-26 05:30N 35°51' E 014°42'0 0.0
2015-Aug-26 04:33N 35°51' E 014°42'0 0.0
2015-Aug-26 03:33N 35°51' E 014°42'0 0.0
2015-Aug-26 02:33N 35°51' E 014°42'0 0.0
2015-Aug-26 01:33N 35°51' E 014°42'0 0.0
2015-Aug-26 00:33N 35°51' E 014°42'0 0.0
2015-Aug-25 23:33N 35°51' E 014°42'0 0.0
2015-Aug-25 22:33N 35°51' E 014°42'0 0.0
2015-Aug-25 21:33N 35°51' E 014°42'0 0.0
2015-Aug-25 20:33N 35°51' E 014°42'0 0.0
2015-Aug-25 19:33N 35°51' E 014°42'0 0.0
2015-Aug-25 18:33N 35°51' E 014°42'0 0.1
2015-Aug-25 17:33N 35°51' E 014°42'0 0.1
2015-Aug-25 16:30N 35°51' E 014°42'0 0.1
2015-Aug-25 15:33N 35°51' E 014°42'0 0.1
2015-Aug-25 14:33N 35°51' E 014°42'0 0.0
2015-Aug-25 13:33N 35°51' E 014°42'0 0.0
2015-Aug-25 12:33N 35°51' E 014°42'0 0.0
2015-Aug-25 11:33N 35°51' E 014°42'0 0.0
2015-Aug-25 10:33N 35°51' E 014°42'0 0.0
2015-Aug-25 09:30N 35°51' E 014°42'0 0.0
2015-Aug-25 08:33N 35°51' E 014°42'0 0.0
2015-Aug-25 07:33N 35°51' E 014°42'0 0.0
2015-Aug-25 06:33N 35°51' E 014°42'0 0.0
2015-Aug-25 05:33N 35°51' E 014°42'0 0.0
2015-Aug-25 04:30N 35°51' E 014°42'0 0.0
2015-Aug-25 03:33N 35°51' E 014°42'0 0.1
2015-Aug-25 02:33N 35°51' E 014°42'0 0.2
2015-Aug-25 01:33N 35°51' E 014°42'0 0.0
2015-Aug-25 00:33N 35°51' E 014°42'0 0.0
2015-Aug-24 23:33N 35°51' E 014°42'0 0.0
2015-Aug-24 22:33N 35°51' E 014°42'0 0.0
2015-Aug-24 21:33N 35°51' E 014°42'0 0.0
2015-Aug-24 20:33N 35°51' E 014°42'0 0.0
2015-Aug-24 19:33N 35°51' E 014°42'0 0.0
2015-Aug-24 18:33N 35°51' E 014°42'0 0.0
2015-Aug-24 17:33N 35°51' E 014°42'0 0.0
2015-Aug-24 16:33N 35°51' E 014°42'0 0.0
2015-Aug-24 15:30N 35°51' E 014°42'0 0.0
2015-Aug-24 14:33N 35°51' E 014°42'0 0.0
2015-Aug-24 13:33N 35°51' E 014°42'0 0.0
2015-Aug-24 12:33N 35°51' E 014°42'0 0.0
2015-Aug-24 11:33N 35°51' E 014°42'0 0.0
2015-Aug-24 10:30N 35°51' E 014°42'0 0.0
2015-Aug-24 09:33N 35°51' E 014°42'0 0.0
2015-Aug-24 08:33N 35°51' E 014°42'0 0.0
2015-Aug-24 07:33N 35°51' E 014°42'0 0.0
2015-Aug-24 06:33N 35°51' E 014°42'0 0.0
2015-Aug-24 05:33N 35°51' E 014°42'0 0.0
2015-Aug-24 04:30N 35°51' E 014°42'0 0.0
2015-Aug-24 03:33N 35°51' E 014°42'0 0.0
2015-Aug-24 02:33N 35°51' E 014°42'0 0.0
2015-Aug-24 01:33N 35°51' E 014°42'0 0.0
2015-Aug-24 00:33N 35°51' E 014°42'0 0.0
2015-Aug-23 23:33N 35°51' E 014°42'0 0.0
2015-Aug-23 22:33N 35°51' E 014°42'0 0.1
2015-Aug-23 21:33N 35°51' E 014°42'0 0.1
2015-Aug-23 20:33N 35°51' E 014°42'0 0.0
2015-Aug-23 19:33N 35°51' E 014°42'0 0.0
2015-Aug-23 18:30N 35°51' E 014°42'0 0.0
2015-Aug-23 17:33N 35°51' E 014°42'0 0.0
2015-Aug-23 16:30N 35°51' E 014°42'0 0.0
2015-Aug-23 15:33N 35°51' E 014°42'0 0.0
2015-Aug-23 14:33N 35°51' E 014°42'0 0.0
2015-Aug-23 13:33N 35°51' E 014°42'0 0.0
2015-Aug-23 12:30N 35°51' E 014°42'0 0.0
2015-Aug-23 11:33N 35°51' E 014°42'0 0.0
2015-Aug-23 10:33N 35°51' E 014°42'0 0.0
2015-Aug-23 09:27N 35°51' E 014°42'0 0.0
2015-Aug-23 08:33N 35°51' E 014°42'0 0.0
2015-Aug-23 07:33N 35°51' E 014°42'0 0.0
2015-Aug-23 06:27N 35°51' E 014°42'0 0.0
2015-Aug-23 01:27N 35°51' E 014°42'0 0.0
2015-Aug-23 00:30N 35°51' E 014°42'0 0.1
2015-Aug-22 23:30N 35°51' E 014°42'0 0.0
2015-Aug-22 22:21N 35°51' E 014°42'0 0.0
2015-Aug-22 21:33N 35°51' E 014°42'0 0.1
2015-Aug-22 20:18N 35°51' E 014°42'0 0.0
2015-Aug-22 19:33N 35°51' E 014°42'0 0.0
2015-Aug-22 18:33N 35°51' E 014°42'0 0.0
2015-Aug-22 17:33N 35°51' E 014°42'0 0.0
2015-Aug-22 16:30N 35°51' E 014°42'0 0.0
2015-Aug-22 15:33N 35°51' E 014°42'0 0.0
2015-Aug-22 14:33N 35°51' E 014°42'0 0.0
2015-Aug-22 13:33N 35°51' E 014°42'0 0.0
2015-Aug-22 10:33N 35°51' E 014°42'0 0.0
2015-Aug-22 09:18N 35°51' E 014°42'0 0.0
2015-Aug-22 08:33N 35°51' E 014°42'0 0.1
2015-Aug-22 07:33N 35°51' E 014°42'0 0.0
2015-Aug-22 06:33N 35°51' E 014°42'0 0.0
2015-Aug-22 05:33N 35°51' E 014°42'0 0.0
2015-Aug-22 04:33N 35°51' E 014°42'0 0.0
2015-Aug-22 03:33N 35°51' E 014°42'0 0.0
2015-Aug-22 02:33N 35°51' E 014°42'0 0.1
2015-Aug-22 01:33N 35°51' E 014°42'0 0.0
2015-Aug-22 00:33N 35°51' E 014°42'0 0.0
2015-Aug-21 23:33N 35°51' E 014°42'0 0.0
2015-Aug-21 22:33N 35°51' E 014°42'2 2.4
2015-Aug-21 21:33N 35°49' E 014°42'9 9.1
2015-Aug-21 20:33N 35°40' E 014°43'9 8.8
2015-Aug-21 19:34N 35°31' E 014°44'9 8.8
2015-Aug-21 18:33N 35°22' E 014°45'158 8.3
2015-Aug-20 23:32N 32°46' E 015°13'24 6.0
2015-Aug-20 19:26N 32°22' E 015°13'0 0.0
2015-Aug-20 18:32N 32°22' E 015°13'0 0.0
2015-Aug-20 17:32N 32°22' E 015°13'0 0.0
2015-Aug-20 16:23N 32°22' E 015°13'0 0.0
2015-Aug-20 15:32N 32°22' E 015°13'  

Dump ship's entire track history